sensor_id;sensor_type;location;lat;lon;timestamp;temperature;humidity
6964;DHT22;3522;50.856;7.278;2023-07-29T00:00:13;18.40;99.90
6964;DHT22;3522;50.856;7.278;2023-07-29T00:02:39;18.40;99.90
6964;DHT22;3522;50.856;7.278;2023-07-29T00:05:06;18.40;99.90
6964;DHT22;3522;50.856;7.278;2023-07-29T00:07:33;18.40;99.90
6964;DHT22;3522;50.856;7.278;2023-07-29T00:10:00;18.40;99.90
6964;DHT22;3522;50.856;7.278;2023-07-29T00:12:26;18.40;99.90
6964;DHT22;3522;50.856;7.278;2023-07-29T00:14:54;18.40;99.90
6964;DHT22;3522;50.856;7.278;2023-07-29T00:17:21;18.40;99.90
6964;DHT22;3522;50.856;7.278;2023-07-29T00:19:47;18.40;99.90
6964;DHT22;3522;50.856;7.278;2023-07-29T00:22:14;18.40;99.90
6964;DHT22;3522;50.856;7.278;2023-07-29T00:24:40;18.40;99.90
6964;DHT22;3522;50.856;7.278;2023-07-29T00:27:07;18.40;99.90
6964;DHT22;3522;50.856;7.278;2023-07-29T00:29:33;18.40;99.90
6964;DHT22;3522;50.856;7.278;2023-07-29T00:32:01;18.40;99.90
6964;DHT22;3522;50.856;7.278;2023-07-29T00:34:28;18.50;99.90
6964;DHT22;3522;50.856;7.278;2023-07-29T00:36:56;18.50;99.90
6964;DHT22;3522;50.856;7.278;2023-07-29T00:39:22;18.50;99.90
6964;DHT22;3522;50.856;7.278;2023-07-29T00:41:49;18.50;99.90
6964;DHT22;3522;50.856;7.278;2023-07-29T00:44:16;18.50;99.90
6964;DHT22;3522;50.856;7.278;2023-07-29T00:46:43;18.50;99.90
6964;DHT22;3522;50.856;7.278;2023-07-29T00:49:13;18.50;99.90
6964;DHT22;3522;50.856;7.278;2023-07-29T00:51:39;18.50;99.90
6964;DHT22;3522;50.856;7.278;2023-07-29T00:54:06;18.50;99.90
6964;DHT22;3522;50.856;7.278;2023-07-29T00:56:33;18.50;99.90
6964;DHT22;3522;50.856;7.278;2023-07-29T00:58:58;18.50;99.90
6964;DHT22;3522;50.856;7.278;2023-07-29T01:01:27;18.50;99.90
6964;DHT22;3522;50.856;7.278;2023-07-29T01:03:53;18.50;99.90
6964;DHT22;3522;50.856;7.278;2023-07-29T01:06:23;18.50;99.90
6964;DHT22;3522;50.856;7.278;2023-07-29T01:08:55;18.50;99.90
6964;DHT22;3522;50.856;7.278;2023-07-29T01:11:26;18.50;99.90
6964;DHT22;3522;50.856;7.278;2023-07-29T01:13:58;18.50;99.90
6964;DHT22;3522;50.856;7.278;2023-07-29T01:16:29;18.50;99.90
6964;DHT22;3522;50.856;7.278;2023-07-29T01:18:57;18.50;99.90
6964;DHT22;3522;50.856;7.278;2023-07-29T01:21:26;18.50;99.90
6964;DHT22;3522;50.856;7.278;2023-07-29T01:23:56;18.50;99.90
6964;DHT22;3522;50.856;7.278;2023-07-29T01:26:24;18.50;99.90
6964;DHT22;3522;50.856;7.278;2023-07-29T01:28:50;18.40;99.90
6964;DHT22;3522;50.856;7.278;2023-07-29T01:31:19;18.50;99.90
6964;DHT22;3522;50.856;7.278;2023-07-29T01:33:51;18.50;99.90
6964;DHT22;3522;50.856;7.278;2023-07-29T01:36:20;18.40;99.90
6964;DHT22;3522;50.856;7.278;2023-07-29T01:38:48;18.50;99.90
6964;DHT22;3522;50.856;7.278;2023-07-29T01:41:17;18.50;99.90
6964;DHT22;3522;50.856;7.278;2023-07-29T01:43:44;18.50;99.90
6964;DHT22;3522;50.856;7.278;2023-07-29T01:46:12;18.50;99.90
6964;DHT22;3522;50.856;7.278;2023-07-29T01:48:38;18.50;99.90
6964;DHT22;3522;50.856;7.278;2023-07-29T01:51:05;18.50;99.90
6964;DHT22;3522;50.856;7.278;2023-07-29T01:53:32;18.50;99.90
6964;DHT22;3522;50.856;7.278;2023-07-29T01:55:58;18.50;99.90
6964;DHT22;3522;50.856;7.278;2023-07-29T01:58:26;18.50;99.90
6964;DHT22;3522;50.856;7.278;2023-07-29T02:00:53;18.50;99.90
6964;DHT22;3522;50.856;7.278;2023-07-29T02:03:19;18.50;99.90
6964;DHT22;3522;50.856;7.278;2023-07-29T02:05:46;18.50;99.90
6964;DHT22;3522;50.856;7.278;2023-07-29T02:08:12;18.50;99.90
6964;DHT22;3522;50.856;7.278;2023-07-29T02:10:39;18.50;99.90
6964;DHT22;3522;50.856;7.278;2023-07-29T02:13:06;18.50;99.90
6964;DHT22;3522;50.856;7.278;2023-07-29T02:15:34;18.50;99.90
6964;DHT22;3522;50.856;7.278;2023-07-29T02:18:00;18.50;99.90
6964;DHT22;3522;50.856;7.278;2023-07-29T02:20:28;18.50;99.90
6964;DHT22;3522;50.856;7.278;2023-07-29T02:22:55;18.50;99.90
6964;DHT22;3522;50.856;7.278;2023-07-29T02:25:21;18.50;99.90
6964;DHT22;3522;50.856;7.278;2023-07-29T02:27:48;18.50;99.90
6964;DHT22;3522;50.856;7.278;2023-07-29T02:30:14;18.50;99.90
6964;DHT22;3522;50.856;7.278;2023-07-29T02:32:42;18.50;99.90
6964;DHT22;3522;50.856;7.278;2023-07-29T02:35:09;18.50;99.90
6964;DHT22;3522;50.856;7.278;2023-07-29T02:37:36;18.50;99.90
6964;DHT22;3522;50.856;7.278;2023-07-29T02:40:02;18.50;99.90
6964;DHT22;3522;50.856;7.278;2023-07-29T02:42:30;18.50;99.90
6964;DHT22;3522;50.856;7.278;2023-07-29T02:44:57;18.50;99.90
6964;DHT22;3522;50.856;7.278;2023-07-29T02:47:24;18.50;99.90
6964;DHT22;3522;50.856;7.278;2023-07-29T02:49:52;18.50;99.90
6964;DHT22;3522;50.856;7.278;2023-07-29T02:52:18;18.50;99.90
6964;DHT22;3522;50.856;7.278;2023-07-29T02:54:45;18.50;99.90
6964;DHT22;3522;50.856;7.278;2023-07-29T02:57:13;18.40;99.90
6964;DHT22;3522;50.856;7.278;2023-07-29T02:59:39;18.40;99.90
6964;DHT22;3522;50.856;7.278;2023-07-29T03:02:06;18.30;99.90
6964;DHT22;3522;50.856;7.278;2023-07-29T03:04:32;18.30;99.90
6964;DHT22;3522;50.856;7.278;2023-07-29T03:07:00;18.30;99.90
6964;DHT22;3522;50.856;7.278;2023-07-29T03:09:27;18.30;99.90
6964;DHT22;3522;50.856;7.278;2023-07-29T03:11:54;18.30;99.90
6964;DHT22;3522;50.856;7.278;2023-07-29T03:14:22;18.30;99.90
6964;DHT22;3522;50.856;7.278;2023-07-29T03:16:48;18.30;99.90
6964;DHT22;3522;50.856;7.278;2023-07-29T03:19:15;18.30;99.90
6964;DHT22;3522;50.856;7.278;2023-07-29T03:21:41;18.30;99.90
6964;DHT22;3522;50.856;7.278;2023-07-29T03:24:09;18.30;99.90
6964;DHT22;3522;50.856;7.278;2023-07-29T03:26:36;18.30;99.90
6964;DHT22;3522;50.856;7.278;2023-07-29T03:29:02;18.30;99.90
6964;DHT22;3522;50.856;7.278;2023-07-29T03:31:29;18.30;99.90
6964;DHT22;3522;50.856;7.278;2023-07-29T03:33:55;18.30;99.90
6964;DHT22;3522;50.856;7.278;2023-07-29T03:36:22;18.30;99.90
6964;DHT22;3522;50.856;7.278;2023-07-29T03:38:50;18.20;99.90
6964;DHT22;3522;50.856;7.278;2023-07-29T03:41:18;18.20;99.90
6964;DHT22;3522;50.856;7.278;2023-07-29T03:43:45;18.20;99.90
6964;DHT22;3522;50.856;7.278;2023-07-29T03:46:11;18.20;99.90
6964;DHT22;3522;50.856;7.278;2023-07-29T03:48:38;18.10;99.90
6964;DHT22;3522;50.856;7.278;2023-07-29T03:51:05;18.10;99.90
6964;DHT22;3522;50.856;7.278;2023-07-29T03:53:31;18.10;99.90
6964;DHT22;3522;50.856;7.278;2023-07-29T03:55:58;18.10;99.90
6964;DHT22;3522;50.856;7.278;2023-07-29T03:58:26;18.00;99.90
6964;DHT22;3522;50.856;7.278;2023-07-29T04:00:52;18.00;99.90
6964;DHT22;3522;50.856;7.278;2023-07-29T04:03:19;18.00;99.90
6964;DHT22;3522;50.856;7.278;2023-07-29T04:05:46;18.00;99.90
6964;DHT22;3522;50.856;7.278;2023-07-29T04:08:12;17.80;99.90
6964;DHT22;3522;50.856;7.278;2023-07-29T04:10:39;17.80;99.90
6964;DHT22;3522;50.856;7.278;2023-07-29T04:13:05;17.80;99.90
6964;DHT22;3522;50.856;7.278;2023-07-29T04:15:33;17.80;99.90
6964;DHT22;3522;50.856;7.278;2023-07-29T04:18:00;17.80;99.90
6964;DHT22;3522;50.856;7.278;2023-07-29T04:20:26;17.80;99.90
6964;DHT22;3522;50.856;7.278;2023-07-29T04:22:53;17.80;99.90
6964;DHT22;3522;50.856;7.278;2023-07-29T04:25:19;17.80;99.90
6964;DHT22;3522;50.856;7.278;2023-07-29T04:27:46;17.80;99.90
6964;DHT22;3522;50.856;7.278;2023-07-29T04:30:12;17.80;99.90
6964;DHT22;3522;50.856;7.278;2023-07-29T04:32:40;17.80;99.90
6964;DHT22;3522;50.856;7.278;2023-07-29T04:35:07;17.80;99.90
6964;DHT22;3522;50.856;7.278;2023-07-29T04:37:34;17.80;99.90
6964;DHT22;3522;50.856;7.278;2023-07-29T04:40:00;17.80;99.90
6964;DHT22;3522;50.856;7.278;2023-07-29T04:42:27;17.80;99.90
6964;DHT22;3522;50.856;7.278;2023-07-29T04:44:54;17.90;99.90
6964;DHT22;3522;50.856;7.278;2023-07-29T04:47:20;17.80;99.90
6964;DHT22;3522;50.856;7.278;2023-07-29T04:49:48;17.80;99.90
6964;DHT22;3522;50.856;7.278;2023-07-29T04:52:14;17.80;99.90
6964;DHT22;3522;50.856;7.278;2023-07-29T04:54:41;17.90;99.90
6964;DHT22;3522;50.856;7.278;2023-07-29T04:57:08;17.90;99.90
6964;DHT22;3522;50.856;7.278;2023-07-29T04:59:34;17.90;99.90
6964;DHT22;3522;50.856;7.278;2023-07-29T05:02:01;17.90;99.90
6964;DHT22;3522;50.856;7.278;2023-07-29T05:04:27;17.90;99.90
6964;DHT22;3522;50.856;7.278;2023-07-29T05:06:55;17.90;99.90
6964;DHT22;3522;50.856;7.278;2023-07-29T05:09:22;17.90;99.90
6964;DHT22;3522;50.856;7.278;2023-07-29T05:11:48;17.90;99.90
6964;DHT22;3522;50.856;7.278;2023-07-29T05:14:15;17.90;99.90
6964;DHT22;3522;50.856;7.278;2023-07-29T05:16:42;17.90;99.90
6964;DHT22;3522;50.856;7.278;2023-07-29T05:19:09;17.90;99.90
6964;DHT22;3522;50.856;7.278;2023-07-29T05:21:36;17.90;99.90
6964;DHT22;3522;50.856;7.278;2023-07-29T05:24:05;17.90;99.90
6964;DHT22;3522;50.856;7.278;2023-07-29T05:26:31;18.00;99.90
6964;DHT22;3522;50.856;7.278;2023-07-29T05:28:58;18.00;99.90
6964;DHT22;3522;50.856;7.278;2023-07-29T05:31:24;18.00;99.90
6964;DHT22;3522;50.856;7.278;2023-07-29T05:33:51;18.00;99.90
6964;DHT22;3522;50.856;7.278;2023-07-29T05:36:17;18.00;99.90
6964;DHT22;3522;50.856;7.278;2023-07-29T05:38:44;18.00;99.90
6964;DHT22;3522;50.856;7.278;2023-07-29T05:41:12;18.10;99.90
6964;DHT22;3522;50.856;7.278;2023-07-29T05:43:38;18.20;99.90
6964;DHT22;3522;50.856;7.278;2023-07-29T05:46:05;18.30;99.90
6964;DHT22;3522;50.856;7.278;2023-07-29T05:48:32;18.30;99.90
6964;DHT22;3522;50.856;7.278;2023-07-29T05:50:59;18.40;99.90
6964;DHT22;3522;50.856;7.278;2023-07-29T05:53:25;18.40;99.90
6964;DHT22;3522;50.856;7.278;2023-07-29T05:55:52;18.50;99.90
6964;DHT22;3522;50.856;7.278;2023-07-29T05:58:20;18.50;99.90
6964;DHT22;3522;50.856;7.278;2023-07-29T06:00:46;18.50;99.90
6964;DHT22;3522;50.856;7.278;2023-07-29T06:03:13;18.50;99.90
6964;DHT22;3522;50.856;7.278;2023-07-29T06:05:40;18.40;99.90
6964;DHT22;3522;50.856;7.278;2023-07-29T06:08:06;18.40;99.90
6964;DHT22;3522;50.856;7.278;2023-07-29T06:10:33;18.40;99.90
6964;DHT22;3522;50.856;7.278;2023-07-29T06:13:00;18.50;99.90
6964;DHT22;3522;50.856;7.278;2023-07-29T06:15:30;18.50;99.90
6964;DHT22;3522;50.856;7.278;2023-07-29T06:17:56;18.50;99.90
6964;DHT22;3522;50.856;7.278;2023-07-29T06:20:23;18.60;99.90
6964;DHT22;3522;50.856;7.278;2023-07-29T06:22:49;18.70;99.90
6964;DHT22;3522;50.856;7.278;2023-07-29T06:25:16;18.80;99.90
6964;DHT22;3522;50.856;7.278;2023-07-29T06:27:43;18.90;99.90
6964;DHT22;3522;50.856;7.278;2023-07-29T06:30:10;18.90;99.90
6964;DHT22;3522;50.856;7.278;2023-07-29T06:32:38;18.90;99.90
6964;DHT22;3522;50.856;7.278;2023-07-29T06:35:04;18.90;99.90
6964;DHT22;3522;50.856;7.278;2023-07-29T06:37:31;19.00;99.90
6964;DHT22;3522;50.856;7.278;2023-07-29T06:39:58;19.00;99.90
6964;DHT22;3522;50.856;7.278;2023-07-29T06:42:25;19.00;99.90
6964;DHT22;3522;50.856;7.278;2023-07-29T06:44:51;18.90;99.90
6964;DHT22;3522;50.856;7.278;2023-07-29T06:47:18;18.90;99.90
6964;DHT22;3522;50.856;7.278;2023-07-29T06:49:46;18.90;99.90
6964;DHT22;3522;50.856;7.278;2023-07-29T06:52:13;18.80;99.90
6964;DHT22;3522;50.856;7.278;2023-07-29T06:54:39;18.80;99.90
6964;DHT22;3522;50.856;7.278;2023-07-29T06:57:06;18.70;99.90
6964;DHT22;3522;50.856;7.278;2023-07-29T06:59:33;18.70;99.90
6964;DHT22;3522;50.856;7.278;2023-07-29T07:02:00;18.70;99.90
6964;DHT22;3522;50.856;7.278;2023-07-29T07:04:27;18.60;99.90
6964;DHT22;3522;50.856;7.278;2023-07-29T07:06:55;18.60;99.90
6964;DHT22;3522;50.856;7.278;2023-07-29T07:09:21;18.60;99.90
6964;DHT22;3522;50.856;7.278;2023-07-29T07:11:48;18.60;99.90
6964;DHT22;3522;50.856;7.278;2023-07-29T07:14:14;18.60;99.90
6964;DHT22;3522;50.856;7.278;2023-07-29T07:16:41;18.60;99.90
6964;DHT22;3522;50.856;7.278;2023-07-29T07:19:07;18.70;99.90
6964;DHT22;3522;50.856;7.278;2023-07-29T07:21:34;18.90;99.90
6964;DHT22;3522;50.856;7.278;2023-07-29T07:24:02;19.10;99.90
6964;DHT22;3522;50.856;7.278;2023-07-29T07:26:28;19.30;99.90
6964;DHT22;3522;50.856;7.278;2023-07-29T07:28:55;19.40;99.90
6964;DHT22;3522;50.856;7.278;2023-07-29T07:31:22;19.50;99.90
6964;DHT22;3522;50.856;7.278;2023-07-29T07:33:48;19.50;99.90
6964;DHT22;3522;50.856;7.278;2023-07-29T07:36:15;19.50;99.90
6964;DHT22;3522;50.856;7.278;2023-07-29T07:38:42;19.50;99.90
6964;DHT22;3522;50.856;7.278;2023-07-29T07:41:09;19.40;99.90
6964;DHT22;3522;50.856;7.278;2023-07-29T07:43:36;19.40;99.90
6964;DHT22;3522;50.856;7.278;2023-07-29T07:46:03;19.40;99.90
6964;DHT22;3522;50.856;7.278;2023-07-29T07:48:29;19.30;99.90
6964;DHT22;3522;50.856;7.278;2023-07-29T07:50:57;19.30;99.90
6964;DHT22;3522;50.856;7.278;2023-07-29T07:53:27;19.30;99.90
6964;DHT22;3522;50.856;7.278;2023-07-29T07:55:53;19.20;99.90
6964;DHT22;3522;50.856;7.278;2023-07-29T07:58:21;19.10;99.90
6964;DHT22;3522;50.856;7.278;2023-07-29T08:00:48;19.10;99.90
6964;DHT22;3522;50.856;7.278;2023-07-29T08:03:14;19.10;99.90
6964;DHT22;3522;50.856;7.278;2023-07-29T08:05:41;19.10;99.90
6964;DHT22;3522;50.856;7.278;2023-07-29T08:08:07;19.10;99.90
6964;DHT22;3522;50.856;7.278;2023-07-29T08:10:34;19.20;99.90
6964;DHT22;3522;50.856;7.278;2023-07-29T08:13:01;19.30;99.90
6964;DHT22;3522;50.856;7.278;2023-07-29T08:15:29;19.50;99.90
6964;DHT22;3522;50.856;7.278;2023-07-29T08:17:55;19.70;99.90
6964;DHT22;3522;50.856;7.278;2023-07-29T08:20:22;20.00;99.90
6964;DHT22;3522;50.856;7.278;2023-07-29T08:22:48;20.30;99.90
6964;DHT22;3522;50.856;7.278;2023-07-29T08:25:15;20.60;99.90
6964;DHT22;3522;50.856;7.278;2023-07-29T08:27:41;20.90;99.90
6964;DHT22;3522;50.856;7.278;2023-07-29T08:30:08;21.10;99.90
6964;DHT22;3522;50.856;7.278;2023-07-29T08:32:36;21.10;99.90
6964;DHT22;3522;50.856;7.278;2023-07-29T08:35:04;21.20;99.90
6964;DHT22;3522;50.856;7.278;2023-07-29T08:37:30;21.00;99.90
6964;DHT22;3522;50.856;7.278;2023-07-29T08:39:57;21.10;99.90
6964;DHT22;3522;50.856;7.278;2023-07-29T08:42:25;21.10;99.90
6964;DHT22;3522;50.856;7.278;2023-07-29T08:44:52;21.20;99.90
6964;DHT22;3522;50.856;7.278;2023-07-29T08:47:20;21.60;99.90
6964;DHT22;3522;50.856;7.278;2023-07-29T08:49:48;21.80;99.90
6964;DHT22;3522;50.856;7.278;2023-07-29T08:52:17;21.80;99.90
6964;DHT22;3522;50.856;7.278;2023-07-29T08:54:44;21.60;99.90
6964;DHT22;3522;50.856;7.278;2023-07-29T08:57:11;21.60;99.90
6964;DHT22;3522;50.856;7.278;2023-07-29T08:59:38;21.70;99.90
6964;DHT22;3522;50.856;7.278;2023-07-29T09:02:05;21.50;99.90
6964;DHT22;3522;50.856;7.278;2023-07-29T09:04:32;21.20;99.90
6964;DHT22;3522;50.856;7.278;2023-07-29T09:07:00;20.80;99.90
6964;DHT22;3522;50.856;7.278;2023-07-29T09:09:27;20.50;99.90
6964;DHT22;3522;50.856;7.278;2023-07-29T09:11:54;20.40;99.90
6964;DHT22;3522;50.856;7.278;2023-07-29T09:14:20;20.30;99.90
6964;DHT22;3522;50.856;7.278;2023-07-29T09:16:47;20.30;99.90
6964;DHT22;3522;50.856;7.278;2023-07-29T09:19:13;20.20;99.90
6964;DHT22;3522;50.856;7.278;2023-07-29T09:21:40;20.20;99.90
6964;DHT22;3522;50.856;7.278;2023-07-29T09:24:08;20.10;99.90
6964;DHT22;3522;50.856;7.278;2023-07-29T09:26:35;20.10;99.90
6964;DHT22;3522;50.856;7.278;2023-07-29T09:29:02;20.10;99.90
6964;DHT22;3522;50.856;7.278;2023-07-29T09:31:28;20.10;99.90
6964;DHT22;3522;50.856;7.278;2023-07-29T09:33:56;20.10;99.90
6964;DHT22;3522;50.856;7.278;2023-07-29T09:36:23;20.20;99.90
6964;DHT22;3522;50.856;7.278;2023-07-29T09:38:51;20.20;99.90
6964;DHT22;3522;50.856;7.278;2023-07-29T09:41:20;20.40;99.90
6964;DHT22;3522;50.856;7.278;2023-07-29T09:43:48;20.50;99.90
6964;DHT22;3522;50.856;7.278;2023-07-29T09:46:14;20.60;99.90
6964;DHT22;3522;50.856;7.278;2023-07-29T09:48:41;20.80;99.90
6964;DHT22;3522;50.856;7.278;2023-07-29T09:51:11;21.00;99.90
6964;DHT22;3522;50.856;7.278;2023-07-29T09:53:41;21.30;99.90
6964;DHT22;3522;50.856;7.278;2023-07-29T09:56:08;21.70;99.90
6964;DHT22;3522;50.856;7.278;2023-07-29T09:58:36;22.00;99.90
6964;DHT22;3522;50.856;7.278;2023-07-29T10:01:03;22.00;99.90
6964;DHT22;3522;50.856;7.278;2023-07-29T10:03:30;22.00;99.90
6964;DHT22;3522;50.856;7.278;2023-07-29T10:05:59;22.00;99.90
6964;DHT22;3522;50.856;7.278;2023-07-29T10:08:25;21.90;99.90
6964;DHT22;3522;50.856;7.278;2023-07-29T10:10:53;21.80;99.90
6964;DHT22;3522;50.856;7.278;2023-07-29T10:13:20;21.50;99.90
6964;DHT22;3522;50.856;7.278;2023-07-29T10:15:48;21.40;99.90
6964;DHT22;3522;50.856;7.278;2023-07-29T10:18:16;21.30;99.90
6964;DHT22;3522;50.856;7.278;2023-07-29T10:20:42;21.20;99.90
6964;DHT22;3522;50.856;7.278;2023-07-29T10:23:10;21.20;99.90
6964;DHT22;3522;50.856;7.278;2023-07-29T10:25:38;21.20;99.90
6964;DHT22;3522;50.856;7.278;2023-07-29T10:28:06;21.30;99.90
6964;DHT22;3522;50.856;7.278;2023-07-29T10:30:33;21.20;99.90
6964;DHT22;3522;50.856;7.278;2023-07-29T10:33:03;21.10;99.90
6964;DHT22;3522;50.856;7.278;2023-07-29T10:35:29;21.10;99.90
6964;DHT22;3522;50.856;7.278;2023-07-29T10:37:56;21.20;99.90
6964;DHT22;3522;50.856;7.278;2023-07-29T10:40:23;21.20;99.90
6964;DHT22;3522;50.856;7.278;2023-07-29T10:42:59;21.00;99.90
6964;DHT22;3522;50.856;7.278;2023-07-29T10:45:26;21.00;99.90
6964;DHT22;3522;50.856;7.278;2023-07-29T10:47:52;21.00;99.90
6964;DHT22;3522;50.856;7.278;2023-07-29T10:50:21;20.90;99.90
6964;DHT22;3522;50.856;7.278;2023-07-29T10:52:49;20.90;99.90
6964;DHT22;3522;50.856;7.278;2023-07-29T10:55:23;20.90;99.90
6964;DHT22;3522;50.856;7.278;2023-07-29T10:57:50;20.90;99.90
6964;DHT22;3522;50.856;7.278;2023-07-29T11:00:18;21.00;99.90
6964;DHT22;3522;50.856;7.278;2023-07-29T11:02:59;21.00;99.90
6964;DHT22;3522;50.856;7.278;2023-07-29T11:05:28;21.10;99.90
6964;DHT22;3522;50.856;7.278;2023-07-29T11:08:15;21.00;99.90
6964;DHT22;3522;50.856;7.278;2023-07-29T11:10:42;21.00;99.90
6964;DHT22;3522;50.856;7.278;2023-07-29T11:13:09;20.60;99.90
6964;DHT22;3522;50.856;7.278;2023-07-29T11:15:37;20.50;99.90
6964;DHT22;3522;50.856;7.278;2023-07-29T11:18:05;20.50;99.90
6964;DHT22;3522;50.856;7.278;2023-07-29T11:20:35;20.40;99.90
6964;DHT22;3522;50.856;7.278;2023-07-29T11:23:02;20.50;99.90
6964;DHT22;3522;50.856;7.278;2023-07-29T11:25:29;20.60;99.90
6964;DHT22;3522;50.856;7.278;2023-07-29T11:27:56;20.80;99.90
6964;DHT22;3522;50.856;7.278;2023-07-29T11:30:24;20.80;99.90
6964;DHT22;3522;50.856;7.278;2023-07-29T11:32:52;21.00;99.90
6964;DHT22;3522;50.856;7.278;2023-07-29T11:35:19;21.00;99.90
6964;DHT22;3522;50.856;7.278;2023-07-29T11:37:47;21.00;99.90
6964;DHT22;3522;50.856;7.278;2023-07-29T11:40:15;21.00;99.90
6964;DHT22;3522;50.856;7.278;2023-07-29T11:42:41;21.00;99.90
6964;DHT22;3522;50.856;7.278;2023-07-29T11:45:08;21.10;99.90
6964;DHT22;3522;50.856;7.278;2023-07-29T11:47:36;21.20;99.90
6964;DHT22;3522;50.856;7.278;2023-07-29T11:50:03;21.30;99.90
6964;DHT22;3522;50.856;7.278;2023-07-29T11:52:31;21.10;99.90
6964;DHT22;3522;50.856;7.278;2023-07-29T11:54:59;21.20;99.90
6964;DHT22;3522;50.856;7.278;2023-07-29T11:57:26;21.30;99.90
6964;DHT22;3522;50.856;7.278;2023-07-29T11:59:53;21.40;99.90
6964;DHT22;3522;50.856;7.278;2023-07-29T12:02:20;21.30;99.90
6964;DHT22;3522;50.856;7.278;2023-07-29T12:04:47;21.00;99.90
6964;DHT22;3522;50.856;7.278;2023-07-29T12:07:14;20.90;99.90
6964;DHT22;3522;50.856;7.278;2023-07-29T12:09:41;21.00;99.90
6964;DHT22;3522;50.856;7.278;2023-07-29T12:12:10;20.80;99.90
6964;DHT22;3522;50.856;7.278;2023-07-29T12:14:36;21.20;99.90
6964;DHT22;3522;50.856;7.278;2023-07-29T12:17:03;21.50;99.90
6964;DHT22;3522;50.856;7.278;2023-07-29T12:19:31;21.80;99.90
6964;DHT22;3522;50.856;7.278;2023-07-29T12:21:58;22.20;99.90
6964;DHT22;3522;50.856;7.278;2023-07-29T12:24:24;22.60;99.90
6964;DHT22;3522;50.856;7.278;2023-07-29T12:26:51;22.40;99.90
6964;DHT22;3522;50.856;7.278;2023-07-29T12:29:19;22.60;99.90
6964;DHT22;3522;50.856;7.278;2023-07-29T12:31:46;22.60;99.90
6964;DHT22;3522;50.856;7.278;2023-07-29T12:34:17;22.30;99.90
6964;DHT22;3522;50.856;7.278;2023-07-29T12:36:44;22.50;99.90
6964;DHT22;3522;50.856;7.278;2023-07-29T12:39:17;22.80;99.90
6964;DHT22;3522;50.856;7.278;2023-07-29T12:41:44;23.50;99.90
6964;DHT22;3522;50.856;7.278;2023-07-29T12:44:11;24.20;99.90
6964;DHT22;3522;50.856;7.278;2023-07-29T12:46:39;24.60;99.90
6964;DHT22;3522;50.856;7.278;2023-07-29T12:49:05;24.90;99.90
6964;DHT22;3522;50.856;7.278;2023-07-29T12:51:32;25.20;99.90
6964;DHT22;3522;50.856;7.278;2023-07-29T12:53:58;25.40;99.90
6964;DHT22;3522;50.856;7.278;2023-07-29T12:56:25;25.60;99.90
6964;DHT22;3522;50.856;7.278;2023-07-29T12:58:51;25.70;99.90
6964;DHT22;3522;50.856;7.278;2023-07-29T13:01:18;25.60;99.90
6964;DHT22;3522;50.856;7.278;2023-07-29T13:03:47;25.50;99.90
6964;DHT22;3522;50.856;7.278;2023-07-29T13:06:14;25.40;99.90
6964;DHT22;3522;50.856;7.278;2023-07-29T13:08:41;25.20;99.90
6964;DHT22;3522;50.856;7.278;2023-07-29T13:11:07;24.90;99.90
6964;DHT22;3522;50.856;7.278;2023-07-29T13:13:34;24.70;99.90
6964;DHT22;3522;50.856;7.278;2023-07-29T13:16:00;24.40;99.90
6964;DHT22;3522;50.856;7.278;2023-07-29T13:18:27;24.10;99.90
6964;DHT22;3522;50.856;7.278;2023-07-29T13:20:55;24.00;99.90
6964;DHT22;3522;50.856;7.278;2023-07-29T13:23:22;23.80;99.90
6964;DHT22;3522;50.856;7.278;2023-07-29T13:25:49;23.70;99.90
6964;DHT22;3522;50.856;7.278;2023-07-29T13:28:16;23.50;99.90
6964;DHT22;3522;50.856;7.278;2023-07-29T13:30:42;23.30;99.90
6964;DHT22;3522;50.856;7.278;2023-07-29T13:33:09;23.20;99.90
6964;DHT22;3522;50.856;7.278;2023-07-29T13:35:35;23.10;99.90
6964;DHT22;3522;50.856;7.278;2023-07-29T13:38:03;22.80;99.90
6964;DHT22;3522;50.856;7.278;2023-07-29T13:40:30;22.60;99.90
6964;DHT22;3522;50.856;7.278;2023-07-29T13:42:57;22.50;99.90
6964;DHT22;3522;50.856;7.278;2023-07-29T13:45:24;22.30;99.90
6964;DHT22;3522;50.856;7.278;2023-07-29T13:47:50;22.00;99.90
6964;DHT22;3522;50.856;7.278;2023-07-29T13:50:17;21.80;99.90
6964;DHT22;3522;50.856;7.278;2023-07-29T13:52:44;21.60;99.90
6964;DHT22;3522;50.856;7.278;2023-07-29T13:55:12;21.40;99.90
6964;DHT22;3522;50.856;7.278;2023-07-29T13:57:38;21.30;99.90
6964;DHT22;3522;50.856;7.278;2023-07-29T14:00:06;21.10;99.90
6964;DHT22;3522;50.856;7.278;2023-07-29T14:02:33;20.90;99.90
6964;DHT22;3522;50.856;7.278;2023-07-29T14:05:00;20.80;99.90
6964;DHT22;3522;50.856;7.278;2023-07-29T14:07:26;20.70;99.90
6964;DHT22;3522;50.856;7.278;2023-07-29T14:09:53;20.70;99.90
6964;DHT22;3522;50.856;7.278;2023-07-29T14:12:21;20.60;99.90
6964;DHT22;3522;50.856;7.278;2023-07-29T14:14:47;20.60;99.90
6964;DHT22;3522;50.856;7.278;2023-07-29T14:17:14;20.60;99.90
6964;DHT22;3522;50.856;7.278;2023-07-29T14:19:40;20.60;99.90
6964;DHT22;3522;50.856;7.278;2023-07-29T14:22:07;20.60;99.90
6964;DHT22;3522;50.856;7.278;2023-07-29T14:24:33;20.60;99.90
6964;DHT22;3522;50.856;7.278;2023-07-29T14:27:00;20.70;99.90
6964;DHT22;3522;50.856;7.278;2023-07-29T14:29:28;20.80;99.90
6964;DHT22;3522;50.856;7.278;2023-07-29T14:31:54;20.90;99.90
6964;DHT22;3522;50.856;7.278;2023-07-29T14:34:21;21.00;99.90
6964;DHT22;3522;50.856;7.278;2023-07-29T14:36:50;21.00;99.90
6964;DHT22;3522;50.856;7.278;2023-07-29T14:39:16;21.00;99.90
6964;DHT22;3522;50.856;7.278;2023-07-29T14:41:43;21.00;99.90
6964;DHT22;3522;50.856;7.278;2023-07-29T14:44:09;21.00;99.90
6964;DHT22;3522;50.856;7.278;2023-07-29T14:46:37;21.00;99.90
6964;DHT22;3522;50.856;7.278;2023-07-29T14:49:04;21.10;99.90
6964;DHT22;3522;50.856;7.278;2023-07-29T14:51:30;21.20;99.90
6964;DHT22;3522;50.856;7.278;2023-07-29T14:53:57;21.20;99.90
6964;DHT22;3522;50.856;7.278;2023-07-29T14:56:23;21.20;99.90
6964;DHT22;3522;50.856;7.278;2023-07-29T14:58:50;21.20;99.90
6964;DHT22;3522;50.856;7.278;2023-07-29T15:01:17;21.30;99.90
6964;DHT22;3522;50.856;7.278;2023-07-29T15:03:44;21.40;99.90
6964;DHT22;3522;50.856;7.278;2023-07-29T15:06:11;21.50;99.90
6964;DHT22;3522;50.856;7.278;2023-07-29T15:08:38;21.60;99.90
6964;DHT22;3522;50.856;7.278;2023-07-29T15:11:04;21.70;99.90
6964;DHT22;3522;50.856;7.278;2023-07-29T15:13:31;21.70;99.90
6964;DHT22;3522;50.856;7.278;2023-07-29T15:15:57;21.70;99.90
6964;DHT22;3522;50.856;7.278;2023-07-29T15:18:24;21.80;99.90
6964;DHT22;3522;50.856;7.278;2023-07-29T15:20:56;21.90;99.90
6964;DHT22;3522;50.856;7.278;2023-07-29T15:23:25;22.00;99.90
6964;DHT22;3522;50.856;7.278;2023-07-29T15:25:51;22.00;99.90
6964;DHT22;3522;50.856;7.278;2023-07-29T15:28:18;22.10;99.90
6964;DHT22;3522;50.856;7.278;2023-07-29T15:30:45;22.30;99.90
6964;DHT22;3522;50.856;7.278;2023-07-29T15:33:11;22.30;99.90
6964;DHT22;3522;50.856;7.278;2023-07-29T15:35:39;22.40;99.90
6964;DHT22;3522;50.856;7.278;2023-07-29T15:38:07;22.40;99.90
6964;DHT22;3522;50.856;7.278;2023-07-29T15:40:33;22.30;99.90
6964;DHT22;3522;50.856;7.278;2023-07-29T15:43:00;22.30;99.90
6964;DHT22;3522;50.856;7.278;2023-07-29T15:45:26;22.20;99.90
6964;DHT22;3522;50.856;7.278;2023-07-29T15:47:53;22.30;99.90
6964;DHT22;3522;50.856;7.278;2023-07-29T15:50:19;22.40;99.90
6964;DHT22;3522;50.856;7.278;2023-07-29T15:52:46;22.40;99.90
6964;DHT22;3522;50.856;7.278;2023-07-29T15:55:14;22.40;99.90
6964;DHT22;3522;50.856;7.278;2023-07-29T15:57:41;22.30;99.90
6964;DHT22;3522;50.856;7.278;2023-07-29T16:00:08;22.10;99.90